Airmont, New York
Current Conditions -  °F | °C
As of 8:51 AM on Saturday 25 Oct 2014 (Local Time) from KTEB Reporting Station
Clear Clear  
Wind Chill: 54°   Ceiling: Unl
Heat Index: 54°   Visibility: 10mi
Dew Point: 37°   Wind: 3mph
Humidity: 53%   Direction: 300°WNW
Pressure: 29.86"   Gusts: NA
Location:  41.1112°N, 74.0777°W
Report Text: KTEB 251251Z 30003KT 10SM CLR 12/03 A2986 RMK AO2 SLP110 T01220028
Loading
Personal Weather Stations






























Interactive Weather Map
Tropical Storm Tracking
New forecast layout! Learn more

10-Day Weather Forecast

Advertisements
Track Severe Weather on mobile